Time;durP1;ratioP1;P1;durP2;ratioP2;P2;SDS_P1;SDS_P2;PMS_P1;PMS_P2;Temp;Humidity;BMP_temperature;BMP_pressure;BME280_temperature;BME280_humidity;BME280_pressure;Samples;Min_cycle;Max_cycle;Signal;HPM_P1;HPM_P2
2021/08/29 00:02:16;;;;;;;0.03;0.03;;;;;;;;;;5063589;28;20212;-68
2021/08/29 00:04:43;;;;;;;0.10;0.10;;;;;;;;;;5080680;28;20585;-69
2021/08/29 00:07:10;;;;;;;0.10;0.10;;;;;;;;;;5075065;28;20208;-68
2021/08/29 00:09:38;;;;;;;0.10;0.10;;;;;;;;;;5081542;28;20196;-68
2021/08/29 00:12:06;;;;;;;0.10;0.10;;;;;;;;;;5069884;28;20210;-67
2021/08/29 00:14:35;;;;;;;0.00;0.00;;;;;;;;;;5079523;28;20226;-68
2021/08/29 00:17:02;;;;;;;0.10;0.10;;;;;;;;;;5070982;28;20434;-67
2021/08/29 00:19:29;;;;;;;0.03;0.03;;;;;;;;;;5083149;28;20529;-68
2021/08/29 00:21:57;;;;;;;0.00;0.00;;;;;;;;;;5063657;28;20204;-68
2021/08/29 00:24:24;;;;;;;0.05;0.05;;;;;;;;;;5082459;28;20199;-68
2021/08/29 00:26:52;;;;;;;0.10;0.10;;;;;;;;;;5063870;28;20410;-68
2021/08/29 00:29:19;;;;;;;0.00;0.00;;;;;;;;;;5079192;28;20195;-68
2021/08/29 00:31:48;;;;;;;0.03;0.03;;;;;;;;;;5073725;28;20231;-68
2021/08/29 00:34:15;;;;;;;0.00;0.00;;;;;;;;;;5083296;28;20238;-67
2021/08/29 00:36:42;;;;;;;0.00;0.00;;;;;;;;;;5072122;28;20234;-67
2021/08/29 00:39:09;;;;;;;0.10;0.10;;;;;;;;;;5060294;28;20208;-68
2021/08/29 00:41:37;;;;;;;0.10;0.10;;;;;;;;;;5060844;28;20373;-68
2021/08/29 00:44:05;;;;;;;0.00;0.00;;;;;;;;;;5063229;28;20215;-69
2021/08/29 00:46:32;;;;;;;0.08;0.08;;;;;;;;;;5057990;28;20349;-68
2021/08/29 00:49:01;;;;;;;0.10;0.10;;;;;;;;;;5060853;28;20246;-69
2021/08/29 00:51:28;;;;;;;0.00;0.00;;;;;;;;;;5062818;28;20574;-67
2021/08/29 00:53:56;;;;;;;0.00;0.00;;;;;;;;;;5057831;28;20209;-67
2021/08/29 00:56:24;;;;;;;0.00;0.00;;;;;;;;;;5062831;28;20208;-68
2021/08/29 00:58:52;;;;;;;0.10;0.10;;;;;;;;;;5062932;28;20404;-68
2021/08/29 01:01:21;;;;;;;0.00;0.00;;;;;;;;;;5057792;28;20279;-68
2021/08/29 01:03:50;;;;;;;0.10;0.10;;;;;;;;;;5057651;28;20257;-67
2021/08/29 01:06:19;;;;;;;0.10;0.10;;;;;;;;;;5062921;28;20204;-68
2021/08/29 01:08:48;;;;;;;0.00;0.00;;;;;;;;;;5054536;28;20238;-68
2021/08/29 01:11:18;;;;;;;0.00;0.00;;;;;;;;;;5056027;28;20201;-68
2021/08/29 01:13:45;;;;;;;0.08;0.08;;;;;;;;;;5062918;28;20211;-68
2021/08/29 01:16:14;;;;;;;0.10;0.10;;;;;;;;;;5057763;28;20236;-68
2021/08/29 01:18:41;;;;;;;0.00;0.00;;;;;;;;;;5059263;28;20229;-68
2021/08/29 01:21:09;;;;;;;0.10;0.10;;;;;;;;;;5075172;28;20492;-68
2021/08/29 01:23:38;;;;;;;0.10;0.10;;;;;;;;;;5062956;28;20262;-68
2021/08/29 01:26:08;;;;;;;0.08;0.08;;;;;;;;;;5069878;28;20499;-68
2021/08/29 01:28:46;;;;;;;0.03;0.03;;;;;;;;;;5083619;28;20356;-68
2021/08/29 01:31:13;;;;;;;0.10;0.10;;;;;;;;;;5075924;28;20196;-68
2021/08/29 01:33:39;;;;;;;0.03;0.03;;;;;;;;;;5062794;28;20205;-68
2021/08/29 01:36:05;;;;;;;0.10;0.10;;;;;;;;;;5077277;28;20407;-68
2021/08/29 01:38:31;;;;;;;0.10;0.10;;;;;;;;;;5062940;28;20462;-68
2021/08/29 01:40:59;;;;;;;0.10;0.10;;;;;;;;;;5063556;28;20261;-67
2021/08/29 01:43:25;;;;;;;0.10;0.10;;;;;;;;;;5072672;28;20204;-68
2021/08/29 01:45:53;;;;;;;0.10;0.10;;;;;;;;;;5082612;28;20210;-68
2021/08/29 01:48:20;;;;;;;0.10;0.10;;;;;;;;;;5082672;28;20208;-68
2021/08/29 01:50:48;;;;;;;0.10;0.10;;;;;;;;;;5082310;28;20261;-68
2021/08/29 01:53:16;;;;;;;0.10;0.10;;;;;;;;;;5069150;28;20250;-68
2021/08/29 01:55:43;;;;;;;0.10;0.10;;;;;;;;;;5071544;28;20227;-68
2021/08/29 01:58:11;;;;;;;0.10;0.10;;;;;;;;;;5067355;28;20253;-69
2021/08/29 02:00:43;;;;;;;0.10;0.10;;;;;;;;;;5075905;28;20213;-66
2021/08/29 02:03:12;;;;;;;0.10;0.10;;;;;;;;;;5051975;28;20211;-67
2021/08/29 02:05:39;;;;;;;0.10;0.10;;;;;;;;;;5052101;28;20203;-69
2021/08/29 02:08:07;;;;;;;0.00;0.00;;;;;;;;;;5051020;28;20245;-68
2021/08/29 02:10:36;;;;;;;0.00;0.00;;;;;;;;;;5055458;28;20219;-68
2021/08/29 02:13:04;;;;;;;0.03;0.03;;;;;;;;;;5056326;28;20452;-68
2021/08/29 02:15:34;;;;;;;0.10;0.10;;;;;;;;;;5066136;28;20236;-69
2021/08/29 02:18:03;;;;;;;0.10;0.10;;;;;;;;;;5060973;28;20285;-70
2021/08/29 02:20:33;;;;;;;0.03;0.03;;;;;;;;;;5082728;28;20387;-69
2021/08/29 02:23:01;;;;;;;0.08;0.08;;;;;;;;;;5085869;28;20232;-69
2021/08/29 02:25:28;;;;;;;0.00;0.00;;;;;;;;;;5085741;28;20224;-69
2021/08/29 02:27:56;;;;;;;0.00;0.00;;;;;;;;;;5069563;28;20214;-68
2021/08/29 02:30:23;;;;;;;0.10;0.10;;;;;;;;;;5074203;28;20268;-67
2021/08/29 02:32:52;;;;;;;0.00;0.00;;;;;;;;;;5079156;28;20248;-68
2021/08/29 02:35:20;;;;;;;0.00;0.00;;;;;;;;;;5052451;28;20423;-68
2021/08/29 02:37:49;;;;;;;0.10;0.10;;;;;;;;;;5083874;28;20210;-68
2021/08/29 02:40:18;;;;;;;0.10;0.10;;;;;;;;;;5085317;28;20218;-68
2021/08/29 02:42:47;;;;;;;0.03;0.03;;;;;;;;;;5081360;28;20444;-67
2021/08/29 02:45:15;;;;;;;0.03;0.03;;;;;;;;;;5068962;28;20503;-68
2021/08/29 02:47:42;;;;;;;0.00;0.00;;;;;;;;;;5082199;28;20938;-68
2021/08/29 02:50:10;;;;;;;0.10;0.10;;;;;;;;;;5085597;28;20210;-68
2021/08/29 02:52:38;;;;;;;0.10;0.10;;;;;;;;;;5085118;28;20541;-69
2021/08/29 02:55:09;;;;;;;0.10;0.10;;;;;;;;;;5083917;28;20231;-69
2021/08/29 02:57:37;;;;;;;0.10;0.10;;;;;;;;;;5070772;28;20219;-66
2021/08/29 03:00:05;;;;;;;0.10;0.10;;;;;;;;;;5084826;28;20209;-68
2021/08/29 03:02:33;;;;;;;0.00;0.00;;;;;;;;;;5072078;28;20514;-69
2021/08/29 03:05:00;;;;;;;0.10;0.10;;;;;;;;;;5084339;28;20195;-68
2021/08/29 03:07:28;;;;;;;0.10;0.10;;;;;;;;;;5085001;28;20218;-68
2021/08/29 03:09:55;;;;;;;0.08;0.08;;;;;;;;;;5077903;28;20205;-69
2021/08/29 03:12:25;;;;;;;0.10;0.10;;;;;;;;;;5054714;28;20200;-68
2021/08/29 03:14:53;;;;;;;0.10;0.10;;;;;;;;;;5080916;28;20218;-68
2021/08/29 03:17:21;;;;;;;0.03;0.03;;;;;;;;;;5084864;28;20214;-68
2021/08/29 03:19:51;;;;;;;0.10;0.10;;;;;;;;;;5073598;28;20208;-68
2021/08/29 03:22:19;;;;;;;0.00;0.00;;;;;;;;;;5078618;28;20215;-68
2021/08/29 03:24:47;;;;;;;0.10;0.10;;;;;;;;;;5054782;28;20251;-68
2021/08/29 03:27:14;;;;;;;0.10;0.10;;;;;;;;;;5077107;28;20241;-68
2021/08/29 03:29:43;;;;;;;0.08;0.08;;;;;;;;;;5084630;28;20207;-67
2021/08/29 03:32:10;;;;;;;0.10;0.10;;;;;;;;;;5069604;28;20259;-68
2021/08/29 03:34:38;;;;;;;0.10;0.10;;;;;;;;;;5068956;28;20279;-67
2021/08/29 03:37:06;;;;;;;0.10;0.10;;;;;;;;;;5051122;28;20357;-67
2021/08/29 03:39:35;;;;;;;0.10;0.10;;;;;;;;;;5084368;28;20274;-68
2021/08/29 03:42:03;;;;;;;0.05;0.05;;;;;;;;;;5084326;28;20208;-68
2021/08/29 03:44:31;;;;;;;0.10;0.10;;;;;;;;;;5079979;28;20508;-69
2021/08/29 03:47:00;;;;;;;0.05;0.05;;;;;;;;;;5075193;28;20191;-68
2021/08/29 03:49:28;;;;;;;0.10;0.10;;;;;;;;;;5070057;28;20218;-69
2021/08/29 03:51:55;;;;;;;0.03;0.03;;;;;;;;;;5084028;28;20209;-68
2021/08/29 03:54:23;;;;;;;0.10;0.10;;;;;;;;;;5069912;28;20196;-68
2021/08/29 03:56:50;;;;;;;0.10;0.10;;;;;;;;;;5083659;28;20470;-68
2021/08/29 03:59:18;;;;;;;0.10;0.10;;;;;;;;;;5083420;28;20233;-67
2021/08/29 04:01:45;;;;;;;0.03;0.03;;;;;;;;;;5083680;28;20212;-68
2021/08/29 04:04:14;;;;;;;0.10;0.10;;;;;;;;;;5083937;28;20235;-68
2021/08/29 04:06:42;;;;;;;0.00;0.00;;;;;;;;;;5083610;28;20226;-68
2021/08/29 04:09:11;;;;;;;0.10;0.10;;;;;;;;;;5083814;28;20215;-68
2021/08/29 04:11:39;;;;;;;0.10;0.10;;;;;;;;;;5083508;28;20250;-68
2021/08/29 04:14:07;;;;;;;0.08;0.08;;;;;;;;;;5083774;28;20204;-68
2021/08/29 04:16:34;;;;;;;0.10;0.10;;;;;;;;;;5083531;28;20219;-69
2021/08/29 04:19:03;;;;;;;0.08;0.08;;;;;;;;;;5078964;28;20243;-68
2021/08/29 04:21:31;;;;;;;0.10;0.10;;;;;;;;;;5064056;28;20212;-67
2021/08/29 04:23:59;;;;;;;0.00;0.00;;;;;;;;;;5078996;28;20236;-68
2021/08/29 04:26:27;;;;;;;0.10;0.10;;;;;;;;;;5073318;28;20495;-68
2021/08/29 04:28:54;;;;;;;0.10;0.10;;;;;;;;;;5081552;28;20208;-68
2021/08/29 04:31:24;;;;;;;0.20;0.20;;;;;;;;;;5071642;28;20229;-69
2021/08/29 04:33:51;;;;;;;0.10;0.10;;;;;;;;;;5083076;28;20253;-69
2021/08/29 04:36:19;;;;;;;0.10;0.10;;;;;;;;;;5076610;28;20234;-68
2021/08/29 04:38:48;;;;;;;0.10;0.10;;;;;;;;;;5076770;28;20207;-68
2021/08/29 04:41:15;;;;;;;0.10;0.10;;;;;;;;;;5083456;28;20428;-68
2021/08/29 04:43:43;;;;;;;0.10;0.10;;;;;;;;;;5083535;28;20207;-68
2021/08/29 04:46:14;;;;;;;0.10;0.10;;;;;;;;;;5083284;28;20411;-69
2021/08/29 04:48:41;;;;;;;0.10;0.10;;;;;;;;;;5083540;28;20430;-68
2021/08/29 04:51:09;;;;;;;0.10;0.10;;;;;;;;;;5068651;28;20442;-69
2021/08/29 04:53:36;;;;;;;0.10;0.10;;;;;;;;;;5073444;28;20570;-68
2021/08/29 04:56:05;;;;;;;0.10;0.10;;;;;;;;;;5064259;28;20220;-68
2021/08/29 04:58:33;;;;;;;0.00;0.00;;;;;;;;;;5083129;28;20211;-68
2021/08/29 05:01:03;;;;;;;0.10;0.10;;;;;;;;;;5083113;28;20506;-67
2021/08/29 05:03:30;;;;;;;0.10;0.10;;;;;;;;;;5083256;28;20266;-68
2021/08/29 05:05:58;;;;;;;0.10;0.10;;;;;;;;;;5070003;28;20207;-68
2021/08/29 05:08:26;;;;;;;0.10;0.10;;;;;;;;;;5082792;28;20198;-68
2021/08/29 05:10:53;;;;;;;0.10;0.10;;;;;;;;;;5060286;28;20215;-68
2021/08/29 05:13:22;;;;;;;0.10;0.10;;;;;;;;;;5075077;28;20213;-68
2021/08/29 05:15:49;;;;;;;0.10;0.10;;;;;;;;;;5073128;28;20289;-69
2021/08/29 05:18:17;;;;;;;0.10;0.10;;;;;;;;;;5082935;28;20272;-69
2021/08/29 05:20:44;;;;;;;0.00;0.00;;;;;;;;;;5082757;28;20274;-68
2021/08/29 05:23:11;;;;;;;0.10;0.10;;;;;;;;;;5082873;28;20204;-68
2021/08/29 05:25:39;;;;;;;0.10;0.10;;;;;;;;;;5083013;28;20196;-68
2021/08/29 05:28:05;;;;;;;0.10;0.10;;;;;;;;;;5082737;28;20196;-68
2021/08/29 05:30:33;;;;;;;0.10;0.10;;;;;;;;;;5067752;28;20239;-68
2021/08/29 05:32:59;;;;;;;0.10;0.10;;;;;;;;;;5070868;28;20215;-68
2021/08/29 05:35:25;;;;;;;0.10;0.10;;;;;;;;;;5083160;28;20203;-68
2021/08/29 05:37:52;;;;;;;0.00;0.00;;;;;;;;;;5086365;28;20203;-69
2021/08/29 05:40:18;;;;;;;0.10;0.10;;;;;;;;;;5086909;28;20203;-70
2021/08/29 05:42:44;;;;;;;0.10;0.10;;;;;;;;;;5086884;28;20365;-67
2021/08/29 05:45:11;;;;;;;0.10;0.10;;;;;;;;;;5076656;28;20416;-68
2021/08/29 05:47:38;;;;;;;0.00;0.00;;;;;;;;;;5080679;28;20265;-68
2021/08/29 05:50:05;;;;;;;0.10;0.10;;;;;;;;;;5074746;28;20195;-67
2021/08/29 05:52:31;;;;;;;0.10;0.10;;;;;;;;;;5072197;28;20267;-68
2021/08/29 05:54:57;;;;;;;0.10;0.10;;;;;;;;;;5086953;28;20412;-68
2021/08/29 05:57:23;;;;;;;0.10;0.10;;;;;;;;;;5074611;28;20248;-68
2021/08/29 05:59:50;;;;;;;0.10;0.10;;;;;;;;;;5081295;28;20201;-68
2021/08/29 06:02:16;;;;;;;0.10;0.10;;;;;;;;;;5067167;28;20232;-69
2021/08/29 06:04:44;;;;;;;0.10;0.10;;;;;;;;;;5076020;28;20439;-69
2021/08/29 06:07:10;;;;;;;0.10;0.10;;;;;;;;;;5077784;28;20242;-68
2021/08/29 06:09:36;;;;;;;0.00;0.00;;;;;;;;;;5082154;28;20207;-69
2021/08/29 06:12:03;;;;;;;0.10;0.10;;;;;;;;;;5079699;28;20299;-68
2021/08/29 06:14:29;;;;;;;0.10;0.10;;;;;;;;;;5079949;28;20203;-67
2021/08/29 06:16:55;;;;;;;0.10;0.10;;;;;;;;;;5075755;28;20223;-68
2021/08/29 06:19:21;;;;;;;0.10;0.10;;;;;;;;;;5069744;28;20281;-68
2021/08/29 06:21:49;;;;;;;0.05;0.05;;;;;;;;;;5086455;28;20211;-68
2021/08/29 06:24:15;;;;;;;0.00;0.00;;;;;;;;;;5086353;28;20214;-69
2021/08/29 06:26:41;;;;;;;0.00;0.00;;;;;;;;;;5074676;28;20206;-67
2021/08/29 06:29:07;;;;;;;0.10;0.10;;;;;;;;;;5069972;28;20418;-67
2021/08/29 06:31:34;;;;;;;0.10;0.10;;;;;;;;;;5085938;28;20204;-67
2021/08/29 06:34:00;;;;;;;0.10;0.10;;;;;;;;;;5085304;28;20206;-68
2021/08/29 06:36:26;;;;;;;0.10;0.10;;;;;;;;;;5086192;28;20219;-68
2021/08/29 06:38:57;;;;;;;0.05;0.05;;;;;;;;;;5085948;28;20232;-68
2021/08/29 06:41:23;;;;;;;0.10;0.10;;;;;;;;;;5085910;28;20270;-70
2021/08/29 06:43:49;;;;;;;0.10;0.10;;;;;;;;;;5073200;28;20230;-67
2021/08/29 06:46:16;;;;;;;0.05;0.05;;;;;;;;;;5070956;28;20361;-69
2021/08/29 06:48:42;;;;;;;0.10;0.10;;;;;;;;;;5062845;28;20208;-68
2021/08/29 06:51:08;;;;;;;0.10;0.10;;;;;;;;;;5079614;28;20222;-68
2021/08/29 06:53:34;;;;;;;0.10;0.10;;;;;;;;;;5067269;28;20211;-68
2021/08/29 06:56:02;;;;;;;0.10;0.10;;;;;;;;;;5079201;28;20268;-68
2021/08/29 06:58:28;;;;;;;0.10;0.10;;;;;;;;;;5078067;28;20258;-69
2021/08/29 07:00:54;;;;;;;0.10;0.10;;;;;;;;;;5065408;28;20241;-69
2021/08/29 07:03:20;;;;;;;0.10;0.10;;;;;;;;;;5079349;28;20208;-68
2021/08/29 07:05:47;;;;;;;0.10;0.10;;;;;;;;;;5065197;28;20363;-69
2021/08/29 07:08:13;;;;;;;0.10;0.10;;;;;;;;;;5079363;28;20200;-69
2021/08/29 07:10:39;;;;;;;0.05;0.05;;;;;;;;;;5075182;28;20203;-69
2021/08/29 07:13:07;;;;;;;0.07;0.07;;;;;;;;;;5057137;28;20368;-69
2021/08/29 07:15:33;;;;;;;0.00;0.00;;;;;;;;;;5085003;28;20217;-68
2021/08/29 07:17:59;;;;;;;0.10;0.10;;;;;;;;;;5078717;28;20247;-67
2021/08/29 07:20:25;;;;;;;0.03;0.03;;;;;;;;;;5053173;28;20219;-68
2021/08/29 07:22:52;;;;;;;0.10;0.10;;;;;;;;;;5053316;28;20202;-68
2021/08/29 07:25:18;;;;;;;0.10;0.10;;;;;;;;;;5053809;28;20279;-69
2021/08/29 07:27:44;;;;;;;0.00;0.00;;;;;;;;;;5050439;28;20204;-67
2021/08/29 07:30:12;;;;;;;0.03;0.03;;;;;;;;;;5044777;28;20201;-69
2021/08/29 07:32:38;;;;;;;0.00;0.00;;;;;;;;;;5055114;28;20209;-67
2021/08/29 07:35:05;;;;;;;0.03;0.03;;;;;;;;;;5053676;28;21214;-70
2021/08/29 07:37:31;;;;;;;0.10;0.10;;;;;;;;;;5048882;28;20569;-67
2021/08/29 07:39:57;;;;;;;0.10;0.10;;;;;;;;;;5056125;28;20209;-67
2021/08/29 07:42:24;;;;;;;0.10;0.10;;;;;;;;;;5060077;28;20208;-69
2021/08/29 07:44:50;;;;;;;0.10;0.10;;;;;;;;;;5051065;28;20204;-68
2021/08/29 07:47:18;;;;;;;0.10;0.10;;;;;;;;;;5058289;28;20209;-68
2021/08/29 07:49:44;;;;;;;0.00;0.00;;;;;;;;;;5054316;28;20211;-68
2021/08/29 07:52:11;;;;;;;0.10;0.10;;;;;;;;;;5056502;28;20297;-69
2021/08/29 07:54:37;;;;;;;0.10;0.10;;;;;;;;;;5057564;28;20245;-70
2021/08/29 07:57:04;;;;;;;0.10;0.10;;;;;;;;;;5057126;28;20570;-67
2021/08/29 07:59:30;;;;;;;0.00;0.00;;;;;;;;;;5056367;28;20207;-69
2021/08/29 08:01:56;;;;;;;0.00;0.00;;;;;;;;;;5057537;28;20391;-68
2021/08/29 08:04:24;;;;;;;0.00;0.00;;;;;;;;;;5064148;28;20211;-69
2021/08/29 08:06:50;;;;;;;0.10;0.10;;;;;;;;;;5064040;28;20321;-68
2021/08/29 08:09:16;;;;;;;0.10;0.10;;;;;;;;;;5057042;28;20245;-68
2021/08/29 08:11:43;;;;;;;0.00;0.00;;;;;;;;;;5064393;28;20267;-69
2021/08/29 08:14:09;;;;;;;0.10;0.10;;;;;;;;;;5053898;28;20265;-69
2021/08/29 08:16:35;;;;;;;0.00;0.00;;;;;;;;;;5060941;28;20223;-68
2021/08/29 08:19:01;;;;;;;0.10;0.10;;;;;;;;;;5064335;28;20231;-69
2021/08/29 08:21:29;;;;;;;0.10;0.10;;;;;;;;;;5075416;28;20363;-68
2021/08/29 08:23:55;;;;;;;0.08;0.08;;;;;;;;;;5084126;28;20227;-68
2021/08/29 08:26:21;;;;;;;0.03;0.03;;;;;;;;;;5083957;28;20214;-68
2021/08/29 08:28:48;;;;;;;0.10;0.10;;;;;;;;;;5071707;28;20196;-69
2021/08/29 08:31:14;;;;;;;0.10;0.10;;;;;;;;;;5056254;28;20255;-68
2021/08/29 08:33:40;;;;;;;0.10;0.10;;;;;;;;;;5049335;28;20514;-68
2021/08/29 08:36:06;;;;;;;0.10;0.10;;;;;;;;;;5049782;28;20258;-68
2021/08/29 08:38:34;;;;;;;0.10;0.10;;;;;;;;;;5051825;28;20229;-68
2021/08/29 08:41:00;;;;;;;0.08;0.08;;;;;;;;;;5053010;28;20199;-68
2021/08/29 08:43:26;;;;;;;0.10;0.10;;;;;;;;;;5055516;28;20224;-68
2021/08/29 08:45:53;;;;;;;0.00;0.00;;;;;;;;;;5056551;28;20201;-63
2021/08/29 08:48:20;;;;;;;0.10;0.10;;;;;;;;;;5052991;28;20205;-62
2021/08/29 08:50:47;;;;;;;0.10;0.10;;;;;;;;;;5051165;28;20245;-63
2021/08/29 08:53:15;;;;;;;0.00;0.00;;;;;;;;;;5048025;28;20492;-64
2021/08/29 08:55:45;;;;;;;0.10;0.10;;;;;;;;;;5057727;28;20200;-64
2021/08/29 08:58:12;;;;;;;0.10;0.10;;;;;;;;;;5054361;28;20567;-63
2021/08/29 09:00:38;;;;;;;0.10;0.10;;;;;;;;;;5053796;28;20239;-64
2021/08/29 09:03:05;;;;;;;0.00;0.00;;;;;;;;;;5050843;28;20235;-63
2021/08/29 09:05:31;;;;;;;0.08;0.08;;;;;;;;;;5057978;28;20205;-63
2021/08/29 09:07:58;;;;;;;0.10;0.10;;;;;;;;;;5045094;28;20207;-62
2021/08/29 09:10:24;;;;;;;0.00;0.00;;;;;;;;;;5063963;28;20226;-62
2021/08/29 09:13:02;;;;;;;0.08;0.08;;;;;;;;;;5056086;28;20205;-62
2021/08/29 09:15:29;;;;;;;0.10;0.10;;;;;;;;;;5066129;28;20487;-62
2021/08/29 09:17:55;;;;;;;0.10;0.10;;;;;;;;;;5066653;28;20451;-62
2021/08/29 09:20:22;;;;;;;0.10;0.10;;;;;;;;;;5055486;28;20209;-63
2021/08/29 09:22:51;;;;;;;0.05;0.05;;;;;;;;;;5066664;28;20258;-62
2021/08/29 09:25:19;;;;;;;0.10;0.10;;;;;;;;;;5063322;28;20290;-62
2021/08/29 09:27:45;;;;;;;0.00;0.00;;;;;;;;;;5059718;28;20196;-64
2021/08/29 09:30:14;;;;;;;0.00;0.00;;;;;;;;;;5066895;28;20205;-63
2021/08/29 09:32:48;;;;;;;0.00;0.00;;;;;;;;;;5056455;28;20204;-62
2021/08/29 09:35:14;;;;;;;0.10;0.10;;;;;;;;;;5051283;28;20339;-63
2021/08/29 09:37:40;;;;;;;0.00;0.00;;;;;;;;;;5052024;28;20218;-63
2021/08/29 09:40:17;;;;;;;0.10;0.10;;;;;;;;;;5052631;28;20209;-65
2021/08/29 09:42:44;;;;;;;0.00;0.00;;;;;;;;;;5050561;28;20271;-62
2021/08/29 09:45:11;;;;;;;0.10;0.10;;;;;;;;;;5058594;28;20415;-60
2021/08/29 09:47:38;;;;;;;0.00;0.00;;;;;;;;;;5052016;28;20224;-65
2021/08/29 09:50:06;;;;;;;0.00;0.00;;;;;;;;;;5051282;28;20251;-62
2021/08/29 09:52:32;;;;;;;0.10;0.10;;;;;;;;;;5050346;28;20443;-63
2021/08/29 09:54:59;;;;;;;0.10;0.10;;;;;;;;;;5052362;28;20201;-63
2021/08/29 09:57:25;;;;;;;0.00;0.00;;;;;;;;;;5055323;28;20226;-64
2021/08/29 09:59:52;;;;;;;0.10;0.10;;;;;;;;;;5055998;28;20206;-62
2021/08/29 10:02:19;;;;;;;0.10;0.10;;;;;;;;;;5059430;28;20230;-67
2021/08/29 10:04:46;;;;;;;0.00;0.00;;;;;;;;;;5051900;28;20278;-63
2021/08/29 10:07:14;;;;;;;0.10;0.10;;;;;;;;;;5057606;28;20387;-62
2021/08/29 10:09:40;;;;;;;0.00;0.00;;;;;;;;;;5053067;28;20693;-63
2021/08/29 10:12:07;;;;;;;0.10;0.10;;;;;;;;;;5051524;28;20194;-63
2021/08/29 10:14:34;;;;;;;0.08;0.08;;;;;;;;;;5049846;28;20202;-64
2021/08/29 10:17:00;;;;;;;0.00;0.00;;;;;;;;;;5055911;28;20200;-63
2021/08/29 10:19:27;;;;;;;0.00;0.00;;;;;;;;;;5066011;28;20531;-64
2021/08/29 10:21:55;;;;;;;0.08;0.08;;;;;;;;;;5058064;28;20248;-64
2021/08/29 10:24:22;;;;;;;0.10;0.10;;;;;;;;;;5057483;28;20218;-64
2021/08/29 10:26:51;;;;;;;0.00;0.00;;;;;;;;;;5053340;28;20215;-63
2021/08/29 10:29:18;;;;;;;0.10;0.10;;;;;;;;;;5048207;28;20200;-64
2021/08/29 10:31:48;;;;;;;0.10;0.10;;;;;;;;;;5064932;28;20248;-63
2021/08/29 10:34:15;;;;;;;0.00;0.00;;;;;;;;;;5059140;28;20201;-64
2021/08/29 10:36:41;;;;;;;0.00;0.00;;;;;;;;;;5059310;28;20208;-63
2021/08/29 10:39:10;;;;;;;0.00;0.00;;;;;;;;;;5057051;28;20222;-62
2021/08/29 10:41:37;;;;;;;0.00;0.00;;;;;;;;;;5066649;28;20388;-62
2021/08/29 10:44:03;;;;;;;0.10;0.10;;;;;;;;;;5065280;28;20205;-62
2021/08/29 10:46:30;;;;;;;0.00;0.00;;;;;;;;;;5065176;28;20210;-64
2021/08/29 10:49:00;;;;;;;0.10;0.10;;;;;;;;;;5063172;28;20248;-64
2021/08/29 10:51:27;;;;;;;0.10;0.10;;;;;;;;;;5065256;28;20428;-64
2021/08/29 10:53:54;;;;;;;0.08;0.08;;;;;;;;;;5063235;28;20206;-63
2021/08/29 10:56:34;;;;;;;0.90;0.90;;;;;;;;;;5060693;28;20206;-63
2021/08/29 10:59:20;;;;;;;0.10;0.10;;;;;;;;;;5061705;28;20219;-65
2021/08/29 11:01:47;;;;;;;0.10;0.10;;;;;;;;;;5062277;28;20244;-62
2021/08/29 11:04:32;;;;;;;0.00;0.00;;;;;;;;;;5055497;28;20258;-63
2021/08/29 11:07:02;;;;;;;0.00;0.00;;;;;;;;;;5054715;28;20203;-63
2021/08/29 11:09:44;;;;;;;0.10;0.10;;;;;;;;;;5057538;28;20393;-63
2021/08/29 11:12:26;;;;;;;0.00;0.00;;;;;;;;;;5060324;28;20212;-63
2021/08/29 11:14:55;;;;;;;0.00;0.00;;;;;;;;;;5059132;28;20235;-63
2021/08/29 11:17:22;;;;;;;0.08;0.08;;;;;;;;;;5059481;28;20206;-62
2021/08/29 11:19:49;;;;;;;0.03;0.03;;;;;;;;;;5061627;28;20209;-63
2021/08/29 11:22:16;;;;;;;0.00;0.00;;;;;;;;;;5067941;28;20255;-64
2021/08/29 11:24:46;;;;;;;0.00;0.00;;;;;;;;;;5049286;28;20242;-62
2021/08/29 11:27:44;;;;;;;0.10;0.10;;;;;;;;;;5063392;28;20205;-63
2021/08/29 11:30:14;;;;;;;0.00;0.00;;;;;;;;;;5063286;28;20198;-62
2021/08/29 11:32:43;;;;;;;0.10;0.10;;;;;;;;;;5060086;28;20200;-63
2021/08/29 11:35:11;;;;;;;0.00;0.00;;;;;;;;;;5058048;28;20209;-62
2021/08/29 11:37:38;;;;;;;0.00;0.00;;;;;;;;;;5047506;28;20592;-63
2021/08/29 11:40:05;;;;;;;0.10;0.10;;;;;;;;;;5057131;28;20203;-63
2021/08/29 11:42:32;;;;;;;0.03;0.03;;;;;;;;;;5054195;28;20206;-63
2021/08/29 11:44:58;;;;;;;0.10;0.10;;;;;;;;;;5057290;28;20203;-63
2021/08/29 11:47:36;;;;;;;0.00;0.00;;;;;;;;;;5047785;28;20206;-63
2021/08/29 11:50:04;;;;;;;0.03;0.03;;;;;;;;;;5062605;28;20209;-64
2021/08/29 11:52:31;;;;;;;0.10;0.10;;;;;;;;;;5058126;28;20247;-63
2021/08/29 11:55:04;;;;;;;0.00;0.00;;;;;;;;;;5063712;28;20222;-63
2021/08/29 11:57:30;;;;;;;0.00;0.00;;;;;;;;;;5063948;28;20446;-63
2021/08/29 12:00:05;;;;;;;0.00;0.00;;;;;;;;;;5063828;28;20495;-63
2021/08/29 12:02:37;;;;;;;0.10;0.10;;;;;;;;;;5056741;28;20201;-62
2021/08/29 12:05:08;;;;;;;0.10;0.10;;;;;;;;;;5059995;28;20235;-63
2021/08/29 12:07:37;;;;;;;0.10;0.10;;;;;;;;;;5057663;28;20202;-63
2021/08/29 12:10:03;;;;;;;0.00;0.00;;;;;;;;;;5060071;28;20249;-63
2021/08/29 12:12:30;;;;;;;0.10;0.10;;;;;;;;;;5057882;28;20216;-66
2021/08/29 12:14:57;;;;;;;0.00;0.00;;;;;;;;;;5058290;28;20204;-66
2021/08/29 12:17:25;;;;;;;0.00;0.00;;;;;;;;;;5058017;28;20225;-67
2021/08/29 12:19:53;;;;;;;0.00;0.00;;;;;;;;;;5054412;28;20537;-68
2021/08/29 12:22:20;;;;;;;0.00;0.00;;;;;;;;;;5053299;28;20261;-66
2021/08/29 12:24:47;;;;;;;0.00;0.00;;;;;;;;;;5054010;28;20497;-67
2021/08/29 12:27:15;;;;;;;0.00;0.00;;;;;;;;;;5055393;28;20206;-68
2021/08/29 12:29:42;;;;;;;0.10;0.10;;;;;;;;;;5056717;28;20227;-67
2021/08/29 12:32:09;;;;;;;0.00;0.00;;;;;;;;;;5056202;28;20205;-66
2021/08/29 12:34:36;;;;;;;0.00;0.00;;;;;;;;;;5054902;28;20475;-67
2021/08/29 12:37:05;;;;;;;0.08;0.08;;;;;;;;;;5053399;28;20274;-68
2021/08/29 12:39:31;;;;;;;0.00;0.00;;;;;;;;;;5055298;28;20225;-69
2021/08/29 12:42:12;;;;;;;0.00;0.00;;;;;;;;;;5052565;28;20209;-67
2021/08/29 12:44:39;;;;;;;0.05;0.05;;;;;;;;;;5057684;28;20548;-68
2021/08/29 12:47:05;;;;;;;0.10;0.10;;;;;;;;;;5058622;28;20272;-67
2021/08/29 12:49:31;;;;;;;0.00;0.00;;;;;;;;;;5057587;28;20202;-67
2021/08/29 12:51:58;;;;;;;0.10;0.10;;;;;;;;;;5051765;28;20240;-66
2021/08/29 12:54:26;;;;;;;0.00;0.00;;;;;;;;;;5055689;28;20486;-67
2021/08/29 12:56:52;;;;;;;0.00;0.00;;;;;;;;;;5051508;28;20211;-67
2021/08/29 13:23:43;;;;;;;0.10;0.10;;;;;;;;;;5054405;28;20227;-66
2021/08/29 13:26:15;;;;;;;0.10;0.10;;;;;;;;;;5048130;28;20212;-66
2021/08/29 13:28:49;;;;;;;0.00;0.00;;;;;;;;;;5051147;28;20278;-68
2021/08/29 13:31:16;;;;;;;0.10;0.10;;;;;;;;;;5049253;28;20247;-69
2021/08/29 13:33:42;;;;;;;0.00;0.00;;;;;;;;;;5052787;28;20421;-66
2021/08/29 13:36:09;;;;;;;0.10;0.10;;;;;;;;;;5046116;28;20554;-66
2021/08/29 13:38:36;;;;;;;0.10;0.10;;;;;;;;;;5054245;28;20523;-66
2021/08/29 13:41:06;;;;;;;0.10;0.10;;;;;;;;;;5051180;28;20311;-67
2021/08/29 13:43:32;;;;;;;0.00;0.00;;;;;;;;;;5056295;28;20208;-66
2021/08/29 13:46:00;;;;;;;0.00;0.00;;;;;;;;;;5053806;28;20234;-68
2021/08/29 13:48:27;;;;;;;0.00;0.00;;;;;;;;;;5058037;28;20386;-67
2021/08/29 13:50:53;;;;;;;0.10;0.10;;;;;;;;;;5062486;28;20280;-67
2021/08/29 13:53:19;;;;;;;0.10;0.10;;;;;;;;;;5058844;28;20271;-67
2021/08/29 13:55:46;;;;;;;0.10;0.10;;;;;;;;;;5057363;28;20213;-66
2021/08/29 13:58:13;;;;;;;0.10;0.10;;;;;;;;;;5060526;28;20226;-68
2021/08/29 14:00:41;;;;;;;0.00;0.00;;;;;;;;;;5060914;28;20490;-67
2021/08/29 14:03:08;;;;;;;0.05;0.05;;;;;;;;;;5063950;28;20270;-67
2021/08/29 14:05:34;;;;;;;0.10;0.10;;;;;;;;;;5051941;28;20208;-67
2021/08/29 14:08:01;;;;;;;0.10;0.10;;;;;;;;;;5058408;28;20495;-67
2021/08/29 14:10:28;;;;;;;0.00;0.00;;;;;;;;;;5052919;28;20408;-66
2021/08/29 14:12:54;;;;;;;0.10;0.10;;;;;;;;;;5058470;28;20202;-66
2021/08/29 14:15:23;;;;;;;0.10;0.10;;;;;;;;;;5053885;28;20241;-67
2021/08/29 14:17:49;;;;;;;0.00;0.00;;;;;;;;;;5053756;28;20237;-68
2021/08/29 14:20:16;;;;;;;0.00;0.00;;;;;;;;;;5059240;28;20333;-65
2021/08/29 14:22:43;;;;;;;0.10;0.10;;;;;;;;;;5057938;28;20228;-67
2021/08/29 14:25:10;;;;;;;0.10;0.10;;;;;;;;;;5057171;28;20232;-66
2021/08/29 14:27:37;;;;;;;0.00;0.00;;;;;;;;;;5056311;28;20210;-66
2021/08/29 14:30:03;;;;;;;0.00;0.00;;;;;;;;;;5053369;28;20197;-66
2021/08/29 14:32:31;;;;;;;0.08;0.08;;;;;;;;;;5054059;28;20215;-68
2021/08/29 14:34:59;;;;;;;0.10;0.10;;;;;;;;;;5057303;28;20206;-68
2021/08/29 14:37:26;;;;;;;0.10;0.10;;;;;;;;;;5064910;28;20273;-66
2021/08/29 14:39:52;;;;;;;0.10;0.10;;;;;;;;;;5064807;28;20268;-67
2021/08/29 14:42:21;;;;;;;0.00;0.00;;;;;;;;;;5064885;28;20249;-67
2021/08/29 14:44:47;;;;;;;0.10;0.10;;;;;;;;;;5064892;28;20203;-64
2021/08/29 14:47:13;;;;;;;0.08;0.08;;;;;;;;;;5064704;28;20327;-63
2021/08/29 14:49:41;;;;;;;0.05;0.05;;;;;;;;;;5061894;28;20205;-64
2021/08/29 14:52:07;;;;;;;0.00;0.00;;;;;;;;;;5064411;28;20444;-64
2021/08/29 14:54:34;;;;;;;0.10;0.10;;;;;;;;;;5053972;28;20215;-65
2021/08/29 14:57:00;;;;;;;0.05;0.05;;;;;;;;;;5056186;28;20233;-64
2021/08/29 14:59:26;;;;;;;0.10;0.10;;;;;;;;;;5054205;28;20235;-63
2021/08/29 15:01:52;;;;;;;0.10;0.10;;;;;;;;;;5054616;28;20202;-63
2021/08/29 15:04:18;;;;;;;0.00;0.00;;;;;;;;;;5050498;28;20220;-64
2021/08/29 15:06:46;;;;;;;0.00;0.00;;;;;;;;;;5055326;28;20553;-63
2021/08/29 15:09:12;;;;;;;0.00;0.00;;;;;;;;;;5054029;28;20243;-62
2021/08/29 15:11:38;;;;;;;0.00;0.00;;;;;;;;;;5057445;28;20262;-62